To NAV CANADA Home Page Login to a new session Search on AWWS site Feedback and Comments Disclaimer Vers la page française équivalente Tips FAQ What's new on the site To the Forecasts and Observations / NOTAM section To "File a Flight Plan" website Publications and other links Update of the User's profile FIC Telephone Numbers My Weather Data Folder Route Weather Data Regional Weather Data Local Weather Data To the Forecasts and Observations / NOTAM section
Request Generated 03/28/2017 at 02:18:33 UTC . Weather information available at that time is displayed.

METAR/TAF

THOMPSON/MB    

METAR CYTH 280200Z 02005KT 15SM OVC017 M06/M10 A3027 RMK SC8 SLP272=
METAR CYTH 280100Z 03008KT 15SM OVC017 M06/M10 A3026 RMK SC8 SLP269=
METAR CYTH 280000Z 01010KT 15SM BKN018 M06/M09 A3025 RMK SC7 SLP265=

TAF CYTH 280038Z 2801/2813 02006KT P6SM BKN015 TEMPO 2801/2805 SCT015
FM280500 VRB03KT P6SM SCT015
RMK NXT FCST BY 280700Z=
Your time UTC time
Weather data provided by Environment Canada and NAV CANADA